sensor_id;sensor_type;location;lat;lon;timestamp;P1;durP1;ratioP1;P2;durP2;ratioP2
26820;SDS011;37186;51.394;5.454;2022-07-04T00:01:29;57.28;;;55.17;;
26820;SDS011;37186;51.394;5.454;2022-07-04T00:04:30;51.90;;;50.00;;
26820;SDS011;37186;51.394;5.454;2022-07-04T00:07:31;58.83;;;56.67;;
26820;SDS011;37186;51.394;5.454;2022-07-04T00:10:31;52.72;;;50.83;;
26820;SDS011;37186;51.394;5.454;2022-07-04T00:13:32;54.53;;;52.53;;
26820;SDS011;37186;51.394;5.454;2022-07-04T00:16:33;51.75;;;49.90;;
26820;SDS011;37186;51.394;5.454;2022-07-04T00:19:34;52.15;;;50.25;;
26820;SDS011;37186;51.394;5.454;2022-07-04T00:22:34;53.40;;;51.45;;
26820;SDS011;37186;51.394;5.454;2022-07-04T00:25:35;49.50;;;47.72;;
26820;SDS011;37186;51.394;5.454;2022-07-04T00:28:36;51.38;;;49.53;;
26820;SDS011;37186;51.394;5.454;2022-07-04T00:31:36;48.97;;;47.22;;
26820;SDS011;37186;51.394;5.454;2022-07-04T00:34:37;49.38;;;47.60;;
26820;SDS011;37186;51.394;5.454;2022-07-04T00:37:37;50.15;;;48.35;;
26820;SDS011;37186;51.394;5.454;2022-07-04T00:40:38;46.65;;;44.97;;
26820;SDS011;37186;51.394;5.454;2022-07-04T00:43:38;46.55;;;44.88;;
26820;SDS011;37186;51.394;5.454;2022-07-04T00:46:40;48.83;;;47.08;;
26820;SDS011;37186;51.394;5.454;2022-07-04T00:49:44;50.10;;;48.30;;
26820;SDS011;37186;51.394;5.454;2022-07-04T00:52:45;48.33;;;46.58;;
26820;SDS011;37186;51.394;5.454;2022-07-04T00:55:45;52.47;;;50.58;;
26820;SDS011;37186;51.394;5.454;2022-07-04T00:58:47;52.72;;;50.83;;
26820;SDS011;37186;51.394;5.454;2022-07-04T01:01:48;52.67;;;50.72;;
26820;SDS011;37186;51.394;5.454;2022-07-04T01:04:50;52.80;;;50.85;;
26820;SDS011;37186;51.394;5.454;2022-07-04T01:07:50;55.75;;;53.67;;
26820;SDS011;37186;51.394;5.454;2022-07-04T01:10:51;55.10;;;53.05;;
26820;SDS011;37186;51.394;5.454;2022-07-04T01:13:55;56.72;;;54.60;;
26820;SDS011;37186;51.394;5.454;2022-07-04T01:16:57;57.08;;;54.95;;
26820;SDS011;37186;51.394;5.454;2022-07-04T01:19:57;55.17;;;53.10;;
26820;SDS011;37186;51.394;5.454;2022-07-04T01:22:58;57.00;;;54.90;;
26820;SDS011;37186;51.394;5.454;2022-07-04T01:25:59;57.30;;;55.15;;
26820;SDS011;37186;51.394;5.454;2022-07-04T01:28:59;55.50;;;53.40;;
26820;SDS011;37186;51.394;5.454;2022-07-04T01:32:04;54.40;;;52.38;;
26820;SDS011;37186;51.394;5.454;2022-07-04T01:35:05;53.70;;;51.72;;
26820;SDS011;37186;51.394;5.454;2022-07-04T01:38:06;52.70;;;50.78;;
26820;SDS011;37186;51.394;5.454;2022-07-04T01:41:07;49.72;;;47.92;;
26820;SDS011;37186;51.394;5.454;2022-07-04T01:44:07;49.00;;;47.22;;
26820;SDS011;37186;51.394;5.454;2022-07-04T01:47:08;44.60;;;43.00;;
26820;SDS011;37186;51.394;5.454;2022-07-04T01:50:09;46.90;;;45.20;;
26820;SDS011;37186;51.394;5.454;2022-07-04T01:53:13;42.60;;;41.08;;
26820;SDS011;37186;51.394;5.454;2022-07-04T01:56:13;42.90;;;41.38;;
26820;SDS011;37186;51.394;5.454;2022-07-04T01:59:14;43.45;;;41.85;;
26820;SDS011;37186;51.394;5.454;2022-07-04T02:02:15;42.13;;;40.63;;
26820;SDS011;37186;51.394;5.454;2022-07-04T02:05:15;42.42;;;40.90;;
26820;SDS011;37186;51.394;5.454;2022-07-04T02:08:16;42.95;;;41.42;;
26820;SDS011;37186;51.394;5.454;2022-07-04T02:11:17;45.15;;;43.55;;
26820;SDS011;37186;51.394;5.454;2022-07-04T02:14:17;43.75;;;42.15;;
26820;SDS011;37186;51.394;5.454;2022-07-04T02:17:18;47.08;;;45.38;;
26820;SDS011;37186;51.394;5.454;2022-07-04T02:20:19;46.95;;;45.25;;
26820;SDS011;37186;51.394;5.454;2022-07-04T02:23:19;49.15;;;47.38;;
26820;SDS011;37186;51.394;5.454;2022-07-04T02:26:20;46.90;;;45.22;;
26820;SDS011;37186;51.394;5.454;2022-07-04T02:29:20;47.30;;;45.58;;
26820;SDS011;37186;51.394;5.454;2022-07-04T02:32:21;51.45;;;49.58;;
26820;SDS011;37186;51.394;5.454;2022-07-04T02:35:21;48.00;;;46.25;;
26820;SDS011;37186;51.394;5.454;2022-07-04T02:38:22;48.85;;;47.10;;
26820;SDS011;37186;51.394;5.454;2022-07-04T02:41:22;43.72;;;42.17;;
26820;SDS011;37186;51.394;5.454;2022-07-04T02:44:23;43.33;;;41.78;;
26820;SDS011;37186;51.394;5.454;2022-07-04T02:47:24;46.10;;;44.45;;
26820;SDS011;37186;51.394;5.454;2022-07-04T02:50:25;42.80;;;41.28;;
26820;SDS011;37186;51.394;5.454;2022-07-04T02:53:25;41.78;;;40.28;;
26820;SDS011;37186;51.394;5.454;2022-07-04T02:56:26;44.20;;;42.60;;
26820;SDS011;37186;51.394;5.454;2022-07-04T02:59:26;45.53;;;43.88;;
26820;SDS011;37186;51.394;5.454;2022-07-04T03:02:27;45.33;;;43.63;;
26820;SDS011;37186;51.394;5.454;2022-07-04T03:05:27;46.28;;;44.58;;
26820;SDS011;37186;51.394;5.454;2022-07-04T03:08:31;47.90;;;46.13;;
26820;SDS011;37186;51.394;5.454;2022-07-04T03:11:32;46.53;;;44.83;;
26820;SDS011;37186;51.394;5.454;2022-07-04T03:14:32;49.55;;;47.72;;
26820;SDS011;37186;51.394;5.454;2022-07-04T03:17:33;47.53;;;45.75;;
26820;SDS011;37186;51.394;5.454;2022-07-04T03:20:33;48.20;;;46.40;;
26820;SDS011;37186;51.394;5.454;2022-07-04T03:23:34;49.25;;;47.45;;
26820;SDS011;37186;51.394;5.454;2022-07-04T03:26:35;53.53;;;51.53;;
26820;SDS011;37186;51.394;5.454;2022-07-04T03:29:35;55.08;;;53.05;;
26820;SDS011;37186;51.394;5.454;2022-07-04T03:32:36;53.35;;;51.35;;
26820;SDS011;37186;51.394;5.454;2022-07-04T03:35:36;56.50;;;54.40;;
26820;SDS011;37186;51.394;5.454;2022-07-04T03:38:37;56.75;;;54.65;;
26820;SDS011;37186;51.394;5.454;2022-07-04T03:41:37;60.60;;;58.40;;
26820;SDS011;37186;51.394;5.454;2022-07-04T03:44:38;62.15;;;59.85;;
26820;SDS011;37186;51.394;5.454;2022-07-04T03:47:38;62.42;;;60.13;;
26820;SDS011;37186;51.394;5.454;2022-07-04T03:50:39;63.05;;;60.75;;
26820;SDS011;37186;51.394;5.454;2022-07-04T03:53:41;66.28;;;63.78;;
26820;SDS011;37186;51.394;5.454;2022-07-04T03:56:42;64.13;;;61.72;;
26820;SDS011;37186;51.394;5.454;2022-07-04T03:59:42;68.32;;;65.80;;
26820;SDS011;37186;51.394;5.454;2022-07-04T04:02:43;67.70;;;65.20;;
26820;SDS011;37186;51.394;5.454;2022-07-04T04:05:43;70.10;;;67.50;;
26820;SDS011;37186;51.394;5.454;2022-07-04T04:08:44;69.35;;;66.75;;
26820;SDS011;37186;51.394;5.454;2022-07-04T04:11:44;70.38;;;67.75;;
26820;SDS011;37186;51.394;5.454;2022-07-04T04:14:45;64.60;;;62.17;;
26820;SDS011;37186;51.394;5.454;2022-07-04T04:17:46;66.28;;;63.78;;
26820;SDS011;37186;51.394;5.454;2022-07-04T04:20:46;62.58;;;60.28;;
26820;SDS011;37186;51.394;5.454;2022-07-04T04:23:47;66.80;;;64.30;;
26820;SDS011;37186;51.394;5.454;2022-07-04T04:26:47;62.38;;;60.08;;
26820;SDS011;37186;51.394;5.454;2022-07-04T04:29:48;65.65;;;63.20;;
26820;SDS011;37186;51.394;5.454;2022-07-04T04:32:48;64.05;;;61.65;;
26820;SDS011;37186;51.394;5.454;2022-07-04T04:35:49;63.67;;;61.27;;
26820;SDS011;37186;51.394;5.454;2022-07-04T04:38:49;61.25;;;59.00;;
26820;SDS011;37186;51.394;5.454;2022-07-04T04:41:50;66.30;;;63.80;;
26820;SDS011;37186;51.394;5.454;2022-07-04T04:44:50;66.22;;;63.75;;
26820;SDS011;37186;51.394;5.454;2022-07-04T04:47:51;67.63;;;65.10;;
26820;SDS011;37186;51.394;5.454;2022-07-04T04:50:53;66.32;;;63.83;;
26820;SDS011;37186;51.394;5.454;2022-07-04T04:53:53;68.10;;;65.53;;
26820;SDS011;37186;51.394;5.454;2022-07-04T04:56:54;72.82;;;70.05;;
26820;SDS011;37186;51.394;5.454;2022-07-04T04:59:54;71.25;;;68.55;;
26820;SDS011;37186;51.394;5.454;2022-07-04T05:02:55;70.78;;;68.07;;
26820;SDS011;37186;51.394;5.454;2022-07-04T05:05:55;71.80;;;69.05;;
26820;SDS011;37186;51.394;5.454;2022-07-04T05:08:56;72.00;;;69.25;;
26820;SDS011;37186;51.394;5.454;2022-07-04T05:11:57;75.80;;;72.85;;
26820;SDS011;37186;51.394;5.454;2022-07-04T05:14:57;72.60;;;69.80;;
26820;SDS011;37186;51.394;5.454;2022-07-04T05:17:58;72.22;;;69.45;;
26820;SDS011;37186;51.394;5.454;2022-07-04T05:20:58;78.72;;;75.63;;
26820;SDS011;37186;51.394;5.454;2022-07-04T05:23:59;76.03;;;73.05;;
26820;SDS011;37186;51.394;5.454;2022-07-04T05:27:00;81.28;;;78.05;;
26820;SDS011;37186;51.394;5.454;2022-07-04T05:30:00;80.53;;;77.32;;
26820;SDS011;37186;51.394;5.454;2022-07-04T05:33:01;83.05;;;79.70;;
26820;SDS011;37186;51.394;5.454;2022-07-04T05:36:01;92.57;;;88.78;;
26820;SDS011;37186;51.394;5.454;2022-07-04T05:39:02;94.10;;;90.20;;
26820;SDS011;37186;51.394;5.454;2022-07-04T05:42:03;91.20;;;87.47;;
26820;SDS011;37186;51.394;5.454;2022-07-04T05:45:03;93.90;;;89.97;;
26820;SDS011;37186;51.394;5.454;2022-07-04T05:48:04;101.20;;;96.95;;
26820;SDS011;37186;51.394;5.454;2022-07-04T05:51:05;101.30;;;96.93;;
26820;SDS011;37186;51.394;5.454;2022-07-04T05:54:06;99.20;;;94.97;;
26820;SDS011;37186;51.394;5.454;2022-07-04T05:57:06;97.93;;;93.82;;
26820;SDS011;37186;51.394;5.454;2022-07-04T06:00:07;96.35;;;92.35;;
26820;SDS011;37186;51.394;5.454;2022-07-04T06:03:08;96.40;;;92.38;;
26820;SDS011;37186;51.394;5.454;2022-07-04T06:06:09;101.38;;;97.15;;
26820;SDS011;37186;51.394;5.454;2022-07-04T06:09:09;97.88;;;93.78;;
26820;SDS011;37186;51.394;5.454;2022-07-04T06:12:10;93.32;;;89.45;;
26820;SDS011;37186;51.394;5.454;2022-07-04T06:15:10;92.90;;;89.07;;
26820;SDS011;37186;51.394;5.454;2022-07-04T06:18:12;96.00;;;92.05;;
26820;SDS011;37186;51.394;5.454;2022-07-04T06:21:12;96.25;;;92.28;;
26820;SDS011;37186;51.394;5.454;2022-07-04T06:24:13;95.55;;;91.60;;
26820;SDS011;37186;51.394;5.454;2022-07-04T06:27:14;96.25;;;92.30;;
26820;SDS011;37186;51.394;5.454;2022-07-04T06:30:14;99.65;;;95.60;;
26820;SDS011;37186;51.394;5.454;2022-07-04T06:33:15;97.38;;;93.45;;
26820;SDS011;37186;51.394;5.454;2022-07-04T06:36:16;94.72;;;90.88;;
26820;SDS011;37186;51.394;5.454;2022-07-04T06:39:16;98.53;;;94.45;;
26820;SDS011;37186;51.394;5.454;2022-07-04T06:42:17;95.25;;;91.38;;
26820;SDS011;37186;51.394;5.454;2022-07-04T06:45:17;93.00;;;89.22;;
26820;SDS011;37186;51.394;5.454;2022-07-04T06:48:18;107.68;;;103.30;;
26820;SDS011;37186;51.394;5.454;2022-07-04T06:51:19;94.95;;;91.10;;
26820;SDS011;37186;51.394;5.454;2022-07-04T06:54:19;94.63;;;90.75;;
26820;SDS011;37186;51.394;5.454;2022-07-04T06:57:20;87.30;;;83.78;;
26820;SDS011;37186;51.394;5.454;2022-07-04T07:00:20;89.28;;;85.68;;
26820;SDS011;37186;51.394;5.454;2022-07-04T07:03:21;82.60;;;79.25;;
26820;SDS011;37186;51.394;5.454;2022-07-04T07:06:21;81.47;;;78.18;;
26820;SDS011;37186;51.394;5.454;2022-07-04T07:09:23;75.75;;;72.70;;
26820;SDS011;37186;51.394;5.454;2022-07-04T07:12:24;74.65;;;71.68;;
26820;SDS011;37186;51.394;5.454;2022-07-04T07:15:24;77.28;;;74.18;;
26820;SDS011;37186;51.394;5.454;2022-07-04T07:18:25;73.68;;;70.72;;
26820;SDS011;37186;51.394;5.454;2022-07-04T07:21:25;74.65;;;71.68;;
26820;SDS011;37186;51.394;5.454;2022-07-04T07:24:26;75.82;;;72.78;;
26820;SDS011;37186;51.394;5.454;2022-07-04T07:27:30;74.25;;;71.28;;
26820;SDS011;37186;51.394;5.454;2022-07-04T07:30:30;75.60;;;72.57;;
26820;SDS011;37186;51.394;5.454;2022-07-04T07:33:31;71.55;;;68.72;;
26820;SDS011;37186;51.394;5.454;2022-07-04T07:36:31;76.95;;;73.90;;
26820;SDS011;37186;51.394;5.454;2022-07-04T07:39:32;77.72;;;74.63;;
26820;SDS011;37186;51.394;5.454;2022-07-04T07:42:33;76.95;;;73.88;;
26820;SDS011;37186;51.394;5.454;2022-07-04T07:45:33;79.10;;;75.95;;
26820;SDS011;37186;51.394;5.454;2022-07-04T07:48:34;86.18;;;82.80;;
26820;SDS011;37186;51.394;5.454;2022-07-04T07:51:35;84.45;;;81.07;;
26820;SDS011;37186;51.394;5.454;2022-07-04T07:54:35;83.78;;;80.45;;
26820;SDS011;37186;51.394;5.454;2022-07-04T07:57:36;83.97;;;80.65;;
26820;SDS011;37186;51.394;5.454;2022-07-04T08:00:37;84.38;;;80.97;;
26820;SDS011;37186;51.394;5.454;2022-07-04T08:03:37;96.60;;;92.78;;
26820;SDS011;37186;51.394;5.454;2022-07-04T08:06:56;88.65;;;85.10;;
26820;SDS011;37186;51.394;5.454;2022-07-04T08:09:57;88.85;;;85.28;;
26820;SDS011;37186;51.394;5.454;2022-07-04T08:12:57;82.22;;;78.93;;
26820;SDS011;37186;51.394;5.454;2022-07-04T08:15:58;84.28;;;80.88;;
26820;SDS011;37186;51.394;5.454;2022-07-04T08:18:59;87.32;;;83.80;;
26820;SDS011;37186;51.394;5.454;2022-07-04T08:22:00;88.97;;;85.38;;
26820;SDS011;37186;51.394;5.454;2022-07-04T08:25:02;87.70;;;84.15;;
26820;SDS011;37186;51.394;5.454;2022-07-04T08:28:03;97.53;;;93.53;;
26820;SDS011;37186;51.394;5.454;2022-07-04T08:31:03;100.13;;;96.03;;
26820;SDS011;37186;51.394;5.454;2022-07-04T08:34:04;95.47;;;91.60;;
26820;SDS011;37186;51.394;5.454;2022-07-04T08:37:05;99.28;;;95.18;;
26820;SDS011;37186;51.394;5.454;2022-07-04T08:40:06;99.13;;;95.07;;
26820;SDS011;37186;51.394;5.454;2022-07-04T08:43:08;110.70;;;106.03;;
26820;SDS011;37186;51.394;5.454;2022-07-04T08:46:15;99.45;;;95.35;;
26820;SDS011;37186;51.394;5.454;2022-07-04T08:49:23;103.22;;;98.90;;
26820;SDS011;37186;51.394;5.454;2022-07-04T08:52:32;107.78;;;103.28;;
26820;SDS011;37186;51.394;5.454;2022-07-04T08:55:34;107.43;;;102.97;;
26820;SDS011;37186;51.394;5.454;2022-07-04T08:58:55;113.28;;;108.53;;
26820;SDS011;37186;51.394;5.454;2022-07-04T09:01:56;115.93;;;111.15;;
26820;SDS011;37186;51.394;5.454;2022-07-04T09:04:57;114.95;;;110.20;;
26820;SDS011;37186;51.394;5.454;2022-07-04T09:07:59;109.88;;;105.35;;
26820;SDS011;37186;51.394;5.454;2022-07-04T09:11:00;113.07;;;108.40;;
26820;SDS011;37186;51.394;5.454;2022-07-04T09:14:02;116.80;;;112.05;;
26820;SDS011;37186;51.394;5.454;2022-07-04T09:17:03;118.15;;;113.35;;
26820;SDS011;37186;51.394;5.454;2022-07-04T09:20:11;120.22;;;115.30;;
26820;SDS011;37186;51.394;5.454;2022-07-04T09:23:20;117.13;;;112.43;;
26820;SDS011;37186;51.394;5.454;2022-07-04T09:26:24;115.68;;;111.03;;
26820;SDS011;37186;51.394;5.454;2022-07-04T09:29:25;122.03;;;117.07;;
26820;SDS011;37186;51.394;5.454;2022-07-04T09:32:39;117.22;;;112.53;;
26820;SDS011;37186;51.394;5.454;2022-07-04T09:35:41;120.63;;;115.70;;
26820;SDS011;37186;51.394;5.454;2022-07-04T09:38:42;116.68;;;112.00;;
26820;SDS011;37186;51.394;5.454;2022-07-04T09:42:02;126.45;;;121.28;;
26820;SDS011;37186;51.394;5.454;2022-07-04T09:45:04;126.70;;;121.53;;
26820;SDS011;37186;51.394;5.454;2022-07-04T09:48:06;130.88;;;125.45;;
26820;SDS011;37186;51.394;5.454;2022-07-04T09:51:07;132.75;;;127.20;;
26820;SDS011;37186;51.394;5.454;2022-07-04T09:57:21;134.35;;;128.75;;
26820;SDS011;37186;51.394;5.454;2022-07-04T10:00:32;133.35;;;127.78;;
26820;SDS011;37186;51.394;5.454;2022-07-04T10:03:35;132.20;;;126.63;;
26820;SDS011;37186;51.394;5.454;2022-07-04T10:06:38;135.07;;;129.32;;
26820;SDS011;37186;51.394;5.454;2022-07-04T10:09:40;140.88;;;134.98;;
26820;SDS011;37186;51.394;5.454;2022-07-04T10:12:40;149.75;;;143.35;;
26820;SDS011;37186;51.394;5.454;2022-07-04T10:15:42;142.50;;;136.32;;
26820;SDS011;37186;51.394;5.454;2022-07-04T10:18:43;153.38;;;146.80;;
26820;SDS011;37186;51.394;5.454;2022-07-04T10:21:44;168.50;;;160.95;;
26820;SDS011;37186;51.394;5.454;2022-07-04T10:24:45;167.13;;;159.70;;
26820;SDS011;37186;51.394;5.454;2022-07-04T10:27:46;175.48;;;167.70;;
26820;SDS011;37186;51.394;5.454;2022-07-04T10:30:50;178.15;;;170.25;;
26820;SDS011;37186;51.394;5.454;2022-07-04T10:33:52;172.70;;;165.15;;
26820;SDS011;37186;51.394;5.454;2022-07-04T10:36:54;168.07;;;160.73;;
26820;SDS011;37186;51.394;5.454;2022-07-04T10:39:55;168.27;;;160.98;;
26820;SDS011;37186;51.394;5.454;2022-07-04T10:42:55;164.40;;;157.38;;
26820;SDS011;37186;51.394;5.454;2022-07-04T10:49:21;153.02;;;146.43;;
26820;SDS011;37186;51.394;5.454;2022-07-04T10:52:22;140.43;;;134.48;;
26820;SDS011;37186;51.394;5.454;2022-07-04T10:55:23;129.10;;;123.40;;
26820;SDS011;37186;51.394;5.454;2022-07-04T10:58:39;130.88;;;125.22;;
26820;SDS011;37186;51.394;5.454;2022-07-04T11:01:50;134.48;;;128.75;;
26820;SDS011;37186;51.394;5.454;2022-07-04T11:05:11;139.23;;;133.30;;
26820;SDS011;37186;51.394;5.454;2022-07-04T11:08:14;143.65;;;137.45;;
26820;SDS011;37186;51.394;5.454;2022-07-04T11:14:51;143.02;;;136.77;;
26820;SDS011;37186;51.394;5.454;2022-07-04T11:17:52;128.60;;;122.80;;
26820;SDS011;37186;51.394;5.454;2022-07-04T11:20:54;122.47;;;117.07;;
26820;SDS011;37186;51.394;5.454;2022-07-04T11:23:54;129.40;;;123.63;;
26820;SDS011;37186;51.394;5.454;2022-07-04T11:26:55;126.95;;;121.35;;
26820;SDS011;37186;51.394;5.454;2022-07-04T11:29:56;119.53;;;114.22;;
26820;SDS011;37186;51.394;5.454;2022-07-04T11:32:56;122.03;;;116.47;;
26820;SDS011;37186;51.394;5.454;2022-07-04T11:39:17;119.75;;;114.53;;
26820;SDS011;37186;51.394;5.454;2022-07-04T11:42:19;134.27;;;128.27;;
26820;SDS011;37186;51.394;5.454;2022-07-04T11:45:38;125.38;;;119.85;;
26820;SDS011;37186;51.394;5.454;2022-07-04T11:48:39;128.68;;;122.90;;
26820;SDS011;37186;51.394;5.454;2022-07-04T11:51:41;126.25;;;120.65;;
26820;SDS011;37186;51.394;5.454;2022-07-04T11:54:47;125.30;;;119.80;;
26820;SDS011;37186;51.394;5.454;2022-07-04T11:57:49;123.07;;;117.60;;
26820;SDS011;37186;51.394;5.454;2022-07-04T12:00:52;121.15;;;115.95;;
26820;SDS011;37186;51.394;5.454;2022-07-04T12:03:52;106.25;;;101.70;;
26820;SDS011;37186;51.394;5.454;2022-07-04T12:06:53;131.73;;;125.85;;
26820;SDS011;37186;51.394;5.454;2022-07-04T12:09:54;109.00;;;104.32;;
26820;SDS011;37186;51.394;5.454;2022-07-04T12:13:00;127.15;;;121.57;;
26820;SDS011;37186;51.394;5.454;2022-07-04T12:16:12;123.63;;;118.15;;
26820;SDS011;37186;51.394;5.454;2022-07-04T12:19:12;115.50;;;110.22;;
26820;SDS011;37186;51.394;5.454;2022-07-04T12:22:13;108.50;;;103.50;;
26820;SDS011;37186;51.394;5.454;2022-07-04T12:25:29;112.57;;;107.47;;
26820;SDS011;37186;51.394;5.454;2022-07-04T12:28:35;118.93;;;113.40;;
26820;SDS011;37186;51.394;5.454;2022-07-04T12:31:39;122.88;;;117.15;;
26820;SDS011;37186;51.394;5.454;2022-07-04T12:34:39;127.30;;;121.32;;
26820;SDS011;37186;51.394;5.454;2022-07-04T12:37:40;124.55;;;118.72;;
26820;SDS011;37186;51.394;5.454;2022-07-04T12:43:58;121.10;;;115.38;;
26820;SDS011;37186;51.394;5.454;2022-07-04T12:47:00;123.07;;;117.32;;
26820;SDS011;37186;51.394;5.454;2022-07-04T12:50:02;127.97;;;121.97;;
26820;SDS011;37186;51.394;5.454;2022-07-04T12:53:02;126.32;;;120.32;;
26820;SDS011;37186;51.394;5.454;2022-07-04T12:56:03;127.93;;;121.85;;
26820;SDS011;37186;51.394;5.454;2022-07-04T12:59:05;125.50;;;119.78;;
26820;SDS011;37186;51.394;5.454;2022-07-04T13:02:07;126.65;;;120.68;;
26820;SDS011;37186;51.394;5.454;2022-07-04T13:05:09;124.13;;;118.25;;
26820;SDS011;37186;51.394;5.454;2022-07-04T13:08:09;123.53;;;117.70;;
26820;SDS011;37186;51.394;5.454;2022-07-04T13:11:11;124.13;;;118.28;;
26820;SDS011;37186;51.394;5.454;2022-07-04T13:14:31;129.45;;;123.38;;
26820;SDS011;37186;51.394;5.454;2022-07-04T13:17:31;141.52;;;134.88;;
26820;SDS011;37186;51.394;5.454;2022-07-04T13:20:32;154.30;;;147.35;;
26820;SDS011;37186;51.394;5.454;2022-07-04T13:23:32;154.57;;;147.32;;
26820;SDS011;37186;51.394;5.454;2022-07-04T13:26:33;148.82;;;141.73;;
26820;SDS011;37186;51.394;5.454;2022-07-04T13:29:33;168.90;;;160.90;;
26820;SDS011;37186;51.394;5.454;2022-07-04T13:32:35;176.38;;;168.00;;
26820;SDS011;37186;51.394;5.454;2022-07-04T13:35:36;180.15;;;171.68;;
26820;SDS011;37186;51.394;5.454;2022-07-04T13:38:37;172.63;;;164.57;;
26820;SDS011;37186;51.394;5.454;2022-07-04T13:41:37;198.73;;;189.13;;
26820;SDS011;37186;51.394;5.454;2022-07-04T13:44:38;188.38;;;179.70;;
26820;SDS011;37186;51.394;5.454;2022-07-04T13:47:39;205.35;;;195.40;;
26820;SDS011;37186;51.394;5.454;2022-07-04T13:50:39;190.88;;;181.65;;
26820;SDS011;37186;51.394;5.454;2022-07-04T13:53:40;199.60;;;190.10;;
26820;SDS011;37186;51.394;5.454;2022-07-04T13:56:40;189.65;;;180.50;;
26820;SDS011;37186;51.394;5.454;2022-07-04T13:59:42;172.02;;;163.88;;
26820;SDS011;37186;51.394;5.454;2022-07-04T14:02:44;149.40;;;142.60;;
26820;SDS011;37186;51.394;5.454;2022-07-04T14:05:44;149.05;;;142.38;;
26820;SDS011;37186;51.394;5.454;2022-07-04T14:08:45;156.25;;;149.27;;
26820;SDS011;37186;51.394;5.454;2022-07-04T14:11:46;141.70;;;135.52;;
26820;SDS011;37186;51.394;5.454;2022-07-04T14:14:46;154.13;;;147.25;;
26820;SDS011;37186;51.394;5.454;2022-07-04T14:17:47;159.65;;;152.45;;
26820;SDS011;37186;51.394;5.454;2022-07-04T14:20:47;172.68;;;165.10;;
26820;SDS011;37186;51.394;5.454;2022-07-04T14:23:50;150.45;;;143.68;;
26820;SDS011;37186;51.394;5.454;2022-07-04T14:26:52;153.75;;;146.85;;
26820;SDS011;37186;51.394;5.454;2022-07-04T14:29:53;161.00;;;153.82;;
26820;SDS011;37186;51.394;5.454;2022-07-04T14:32:53;156.52;;;149.60;;
26820;SDS011;37186;51.394;5.454;2022-07-04T14:35:54;153.25;;;146.50;;
26820;SDS011;37186;51.394;5.454;2022-07-04T14:38:55;160.57;;;153.38;;
26820;SDS011;37186;51.394;5.454;2022-07-04T14:41:55;162.57;;;155.30;;
26820;SDS011;37186;51.394;5.454;2022-07-04T14:44:56;181.40;;;173.18;;
26820;SDS011;37186;51.394;5.454;2022-07-04T14:47:56;176.65;;;168.77;;
26820;SDS011;37186;51.394;5.454;2022-07-04T14:50:57;173.55;;;165.88;;
26820;SDS011;37186;51.394;5.454;2022-07-04T14:53:58;162.43;;;155.15;;
26820;SDS011;37186;51.394;5.454;2022-07-04T14:56:59;176.15;;;168.25;;
26820;SDS011;37186;51.394;5.454;2022-07-04T14:59:59;159.40;;;151.82;;
26820;SDS011;37186;51.394;5.454;2022-07-04T15:03:00;168.88;;;161.43;;
26820;SDS011;37186;51.394;5.454;2022-07-04T15:06:00;182.10;;;174.10;;
26820;SDS011;37186;51.394;5.454;2022-07-04T15:09:04;162.82;;;155.45;;
26820;SDS011;37186;51.394;5.454;2022-07-04T15:12:08;161.18;;;154.02;;
26820;SDS011;37186;51.394;5.454;2022-07-04T15:15:09;164.50;;;157.05;;
26820;SDS011;37186;51.394;5.454;2022-07-04T15:18:10;185.88;;;177.80;;
26820;SDS011;37186;51.394;5.454;2022-07-04T15:21:10;198.82;;;190.05;;
26820;SDS011;37186;51.394;5.454;2022-07-04T15:24:29;154.05;;;147.35;;
26820;SDS011;37186;51.394;5.454;2022-07-04T15:27:30;206.70;;;197.45;;
26820;SDS011;37186;51.394;5.454;2022-07-04T15:30:30;236.75;;;226.23;;
26820;SDS011;37186;51.394;5.454;2022-07-04T15:33:31;204.10;;;194.98;;
26820;SDS011;37186;51.394;5.454;2022-07-04T15:36:32;154.18;;;147.15;;
26820;SDS011;37186;51.394;5.454;2022-07-04T15:39:32;148.82;;;142.18;;
26820;SDS011;37186;51.394;5.454;2022-07-04T15:42:33;153.40;;;146.68;;
26820;SDS011;37186;51.394;5.454;2022-07-04T15:45:33;189.27;;;180.57;;
26820;SDS011;37186;51.394;5.454;2022-07-04T15:48:34;187.13;;;178.50;;
26820;SDS011;37186;51.394;5.454;2022-07-04T15:51:34;217.18;;;207.30;;
26820;SDS011;37186;51.394;5.454;2022-07-04T15:54:35;197.63;;;188.65;;
26820;SDS011;37186;51.394;5.454;2022-07-04T15:57:35;199.82;;;190.73;;
26820;SDS011;37186;51.394;5.454;2022-07-04T16:00:36;184.93;;;176.40;;
26820;SDS011;37186;51.394;5.454;2022-07-04T16:03:37;190.73;;;182.10;;
26820;SDS011;37186;51.394;5.454;2022-07-04T16:06:37;190.48;;;181.82;;
26820;SDS011;37186;51.394;5.454;2022-07-04T16:09:40;202.40;;;193.20;;
26820;SDS011;37186;51.394;5.454;2022-07-04T16:12:41;235.93;;;225.05;;
26820;SDS011;37186;51.394;5.454;2022-07-04T16:15:41;233.68;;;222.80;;
26820;SDS011;37186;51.394;5.454;2022-07-04T16:18:42;258.48;;;246.52;;
26820;SDS011;37186;51.394;5.454;2022-07-04T16:21:42;250.13;;;238.68;;
26820;SDS011;37186;51.394;5.454;2022-07-04T16:24:43;254.02;;;242.43;;
26820;SDS011;37186;51.394;5.454;2022-07-04T16:27:43;244.80;;;233.57;;
26820;SDS011;37186;51.394;5.454;2022-07-04T16:30:44;237.68;;;226.70;;
26820;SDS011;37186;51.394;5.454;2022-07-04T16:33:44;215.55;;;205.38;;
26820;SDS011;37186;51.394;5.454;2022-07-04T16:36:48;185.80;;;177.13;;
26820;SDS011;37186;51.394;5.454;2022-07-04T16:39:48;188.35;;;179.55;;
26820;SDS011;37186;51.394;5.454;2022-07-04T16:42:49;198.07;;;188.70;;
26820;SDS011;37186;51.394;5.454;2022-07-04T16:45:49;197.50;;;187.85;;
26820;SDS011;37186;51.394;5.454;2022-07-04T16:48:50;184.23;;;175.32;;
26820;SDS011;37186;51.394;5.454;2022-07-04T16:51:51;162.55;;;155.02;;
26820;SDS011;37186;51.394;5.454;2022-07-04T16:54:51;184.55;;;176.32;;
26820;SDS011;37186;51.394;5.454;2022-07-04T16:57:52;187.07;;;178.70;;
26820;SDS011;37186;51.394;5.454;2022-07-04T17:00:52;180.95;;;173.00;;
26820;SDS011;37186;51.394;5.454;2022-07-04T17:03:53;169.02;;;161.63;;
26820;SDS011;37186;51.394;5.454;2022-07-04T17:06:55;173.52;;;165.95;;
26820;SDS011;37186;51.394;5.454;2022-07-04T17:09:55;173.18;;;165.50;;
26820;SDS011;37186;51.394;5.454;2022-07-04T17:12:56;177.20;;;169.48;;
26820;SDS011;37186;51.394;5.454;2022-07-04T17:15:56;170.10;;;162.73;;
26820;SDS011;37186;51.394;5.454;2022-07-04T17:18:57;181.88;;;173.98;;
26820;SDS011;37186;51.394;5.454;2022-07-04T17:21:57;167.80;;;160.02;;
26820;SDS011;37186;51.394;5.454;2022-07-04T17:24:58;176.70;;;168.15;;
26820;SDS011;37186;51.394;5.454;2022-07-04T17:27:58;171.77;;;163.45;;
26820;SDS011;37186;51.394;5.454;2022-07-04T17:30:59;174.35;;;165.88;;
26820;SDS011;37186;51.394;5.454;2022-07-04T17:34:00;175.32;;;166.82;;
26820;SDS011;37186;51.394;5.454;2022-07-04T17:37:00;170.93;;;162.52;;
26820;SDS011;37186;51.394;5.454;2022-07-04T17:40:02;186.00;;;177.50;;
26820;SDS011;37186;51.394;5.454;2022-07-04T17:43:04;179.52;;;170.90;;